createdAt,value
2023-05-05T00:01:08.956Z,18.44
2023-05-05T00:03:35.832Z,18.43
2023-05-05T00:06:03.133Z,18.40
2023-05-05T00:08:29.778Z,18.38
2023-05-05T00:10:57.409Z,18.39
2023-05-05T00:13:24.556Z,18.32
2023-05-05T00:15:53.313Z,18.42
2023-05-05T00:18:20.521Z,18.37
2023-05-05T00:20:47.988Z,18.36
2023-05-05T00:23:18.949Z,18.40
2023-05-05T00:25:45.675Z,18.37
2023-05-05T00:28:13.982Z,18.34
2023-05-05T00:30:40.592Z,18.28
2023-05-05T00:33:07.204Z,18.19
2023-05-05T00:35:34.240Z,18.18
2023-05-05T00:38:00.825Z,18.22
2023-05-05T00:40:28.368Z,18.17
2023-05-05T00:42:54.908Z,18.25
2023-05-05T00:45:21.444Z,18.30
2023-05-05T00:47:51.301Z,18.25
2023-05-05T00:50:27.248Z,18.28
2023-05-05T00:52:56.615Z,18.21
2023-05-05T00:55:23.200Z,18.16
2023-05-05T00:57:49.881Z,18.16
2023-05-05T01:00:16.728Z,18.19
2023-05-05T01:02:44.538Z,18.12
2023-05-05T01:05:13.230Z,18.09
2023-05-05T01:08:13.868Z,18.16
2023-05-05T01:10:55.006Z,18.15
2023-05-05T01:13:49.876Z,18.11
2023-05-05T01:16:23.816Z,18.14
2023-05-05T01:19:28.110Z,18.04
2023-05-05T01:22:00.379Z,18.02
2023-05-05T01:24:56.931Z,17.81
2023-05-05T01:27:48.283Z,17.98
2023-05-05T01:30:17.665Z,18.02
2023-05-05T01:32:50.879Z,18.03
2023-05-05T01:35:41.586Z,18.08
2023-05-05T01:38:19.233Z,18.09
2023-05-05T01:40:49.883Z,18.06
2023-05-05T01:43:20.053Z,18.13
2023-05-05T01:45:47.842Z,18.05
2023-05-05T01:48:18.265Z,18.04
2023-05-05T01:50:47.300Z,18.00
2023-05-05T01:53:17.423Z,18.08
2023-05-05T01:55:45.960Z,18.13
2023-05-05T01:58:13.687Z,18.12
2023-05-05T02:00:41.816Z,18.14
2023-05-05T02:03:11.006Z,18.12
2023-05-05T02:05:39.571Z,18.12
2023-05-05T02:08:08.755Z,18.09
2023-05-05T02:10:37.964Z,18.09
2023-05-05T02:13:05.210Z,18.20
2023-05-05T02:15:33.892Z,18.18
2023-05-05T02:18:02.028Z,18.14
2023-05-05T02:20:31.107Z,18.16
2023-05-05T02:22:59.116Z,18.15
2023-05-05T02:25:44.090Z,18.27
2023-05-05T02:28:21.699Z,18.14
2023-05-05T02:30:58.126Z,18.17
2023-05-05T02:33:28.174Z,18.19
2023-05-05T02:35:56.802Z,18.22
2023-05-05T02:38:28.794Z,18.27
2023-05-05T02:41:01.565Z,18.18
2023-05-05T02:43:31.361Z,18.21
2023-05-05T02:45:57.971Z,18.25
2023-05-05T02:48:24.705Z,18.27
2023-05-05T02:50:52.422Z,18.36
2023-05-05T02:53:30.980Z,18.36
2023-05-05T02:56:14.174Z,18.31
2023-05-05T02:58:53.660Z,18.36
2023-05-05T03:01:29.313Z,18.16
2023-05-05T03:04:08.280Z,18.25
2023-05-05T03:06:47.064Z,18.37
2023-05-05T03:09:20.696Z,18.37
2023-05-05T03:11:58.531Z,18.39
2023-05-05T03:14:29.547Z,18.42
2023-05-05T03:16:59.599Z,18.48
2023-05-05T03:19:27.647Z,18.46
2023-05-05T03:21:59.160Z,18.43
2023-05-05T03:24:25.727Z,18.48
2023-05-05T03:26:59.898Z,18.58
2023-05-05T03:29:32.562Z,18.51
2023-05-05T03:32:00.897Z,18.49
2023-05-05T03:34:28.068Z,18.51
2023-05-05T03:36:54.655Z,18.46
2023-05-05T03:39:21.629Z,18.46
2023-05-05T03:41:49.331Z,18.48
2023-05-05T03:44:18.374Z,18.43
2023-05-05T03:46:44.952Z,18.44
2023-05-05T03:49:13.941Z,18.41
2023-05-05T03:51:42.312Z,18.40
2023-05-05T03:54:08.874Z,18.53
2023-05-05T03:56:36.307Z,18.48
2023-05-05T03:59:03.005Z,18.56
2023-05-05T04:01:30.006Z,18.51
2023-05-05T04:03:57.589Z,18.51
2023-05-05T04:06:24.288Z,18.60
2023-05-05T04:08:50.832Z,18.63
2023-05-05T04:11:17.528Z,18.35
2023-05-05T04:13:44.114Z,18.33
2023-05-05T04:16:10.800Z,18.39
2023-05-05T04:18:38.265Z,18.25
2023-05-05T04:21:04.960Z,18.24
2023-05-05T04:23:31.593Z,18.37
2023-05-05T04:25:58.572Z,18.36
2023-05-05T04:28:26.430Z,18.38
2023-05-05T04:30:53.436Z,18.43
2023-05-05T04:33:20.242Z,18.48
2023-05-05T04:35:48.890Z,18.63
2023-05-05T04:38:15.532Z,18.59
2023-05-05T04:40:42.165Z,18.69
2023-05-05T04:43:10.213Z,18.72
2023-05-05T04:45:36.937Z,18.81
2023-05-05T04:48:05.091Z,18.91
2023-05-05T04:50:32.419Z,18.99
2023-05-05T04:52:59.014Z,19.15
2023-05-05T04:55:25.977Z,19.32
2023-05-05T04:57:52.508Z,19.42
2023-05-05T05:00:19.087Z,19.64
2023-05-05T05:02:45.785Z,19.76
2023-05-05T05:05:12.547Z,19.82
2023-05-05T05:07:39.165Z,19.82
2023-05-05T05:10:06.241Z,19.89
2023-05-05T05:12:32.977Z,19.91
2023-05-05T05:14:59.853Z,19.94
2023-05-05T05:17:26.902Z,19.97
2023-05-05T05:19:55.190Z,20.03
2023-05-05T05:22:22.109Z,20.08
2023-05-05T05:24:48.768Z,20.15
2023-05-05T05:27:15.748Z,20.27
2023-05-05T05:29:45.179Z,20.40
2023-05-05T05:32:11.879Z,20.50
2023-05-05T05:34:38.672Z,20.56
2023-05-05T05:37:06.926Z,20.96
2023-05-05T05:39:33.509Z,21.19
2023-05-05T05:42:00.539Z,21.35
2023-05-05T05:44:27.302Z,21.44
2023-05-05T05:46:53.831Z,21.57
2023-05-05T05:49:20.634Z,21.73
2023-05-05T05:51:47.171Z,21.76
2023-05-05T05:54:13.706Z,21.85
2023-05-05T05:56:41.598Z,21.84
2023-05-05T05:59:09.968Z,22.03
2023-05-05T06:01:38.105Z,22.18
2023-05-05T06:04:04.885Z,22.30
2023-05-05T06:06:31.556Z,22.32
2023-05-05T06:08:58.237Z,22.45
2023-05-05T06:11:24.852Z,22.48
2023-05-05T06:13:51.425Z,22.60
2023-05-05T06:16:18.051Z,22.67
2023-05-05T06:18:45.912Z,22.80
2023-05-05T06:21:13.261Z,22.90
2023-05-05T06:23:40.459Z,22.90
2023-05-05T06:26:07.259Z,23.09
2023-05-05T06:28:33.805Z,23.22
2023-05-05T06:31:00.524Z,23.42
2023-05-05T06:33:27.123Z,23.59
2023-05-05T06:35:54.252Z,23.71
2023-05-05T06:38:20.803Z,23.82
2023-05-05T06:40:49.441Z,23.89
2023-05-05T06:43:16.892Z,24.13
2023-05-05T06:45:48.053Z,24.44
2023-05-05T06:48:14.651Z,24.56
2023-05-05T06:50:41.186Z,24.54
2023-05-05T06:53:07.984Z,24.49
2023-05-05T06:55:34.490Z,24.56
2023-05-05T06:58:01.223Z,24.82
2023-05-05T07:00:27.919Z,24.88
2023-05-05T07:02:54.662Z,25.03
2023-05-05T07:05:21.237Z,25.16
2023-05-05T07:07:52.659Z,25.51
2023-05-05T07:10:19.289Z,25.57
2023-05-05T07:12:46.524Z,25.91
2023-05-05T07:15:26.834Z,26.19
2023-05-05T07:17:55.664Z,26.20
2023-05-05T07:20:22.227Z,26.40
2023-05-05T07:22:48.747Z,26.56
2023-05-05T07:25:15.333Z,26.47
2023-05-05T07:27:41.931Z,26.42
2023-05-05T07:30:13.209Z,26.92
2023-05-05T07:32:42.081Z,26.63
2023-05-05T07:35:09.013Z,26.84
2023-05-05T07:37:35.919Z,27.05
2023-05-05T07:40:02.516Z,27.37
2023-05-05T07:42:29.054Z,27.47
2023-05-05T07:44:55.577Z,27.42
2023-05-05T07:47:22.195Z,27.72
2023-05-05T07:49:48.728Z,27.87
2023-05-05T07:52:15.267Z,27.56
2023-05-05T07:54:42.364Z,27.82
2023-05-05T07:57:08.913Z,27.90
2023-05-05T07:59:35.910Z,27.94
2023-05-05T08:02:02.477Z,28.10
2023-05-05T08:04:29.059Z,28.20
2023-05-05T08:06:55.738Z,28.32
2023-05-05T08:09:22.281Z,28.51
2023-05-05T08:11:48.815Z,28.59
2023-05-05T08:14:15.572Z,28.63
2023-05-05T08:16:42.096Z,28.62
2023-05-05T08:19:21.115Z,28.79
2023-05-05T08:21:51.815Z,28.54
2023-05-05T08:24:18.422Z,28.53
2023-05-05T08:26:44.988Z,28.70
2023-05-05T08:29:11.543Z,28.98
2023-05-05T08:31:38.180Z,29.00
2023-05-05T08:34:05.595Z,29.09
2023-05-05T08:36:32.928Z,29.05
2023-05-05T08:39:00.101Z,28.88
2023-05-05T08:41:27.738Z,29.16
2023-05-05T08:43:54.550Z,29.35
2023-05-05T08:46:22.008Z,29.10
2023-05-05T08:48:48.761Z,28.95
2023-05-05T08:51:19.383Z,28.89
2023-05-05T08:53:58.374Z,29.49
2023-05-05T08:56:34.132Z,29.70
2023-05-05T08:59:02.090Z,29.75
2023-05-05T09:01:29.924Z,29.65
2023-05-05T09:03:58.478Z,29.87
2023-05-05T09:06:27.261Z,30.03
2023-05-05T09:08:54.328Z,30.10
2023-05-05T09:11:22.495Z,30.03
2023-05-05T09:13:49.663Z,29.90
2023-05-05T09:16:16.354Z,29.96
2023-05-05T09:18:43.106Z,30.00
2023-05-05T09:21:24.582Z,30.14
2023-05-05T09:24:08.194Z,29.81
2023-05-05T09:26:42.651Z,29.89
2023-05-05T09:29:09.902Z,29.88
2023-05-05T09:31:37.715Z,30.12
2023-05-05T09:34:15.463Z,29.83
2023-05-05T09:36:48.812Z,29.91
2023-05-05T09:39:19.968Z,29.90
2023-05-05T09:41:46.920Z,29.76
2023-05-05T09:44:17.177Z,29.61
2023-05-05T09:46:52.127Z,29.92
2023-05-05T09:49:23.508Z,30.16
2023-05-05T09:51:50.078Z,30.09
2023-05-05T09:54:23.531Z,30.55
2023-05-05T09:56:50.833Z,30.12
2023-05-05T09:59:17.361Z,30.03
2023-05-05T10:01:44.254Z,29.94
2023-05-05T10:04:31.344Z,29.75
2023-05-05T10:06:58.837Z,29.74
2023-05-05T10:09:26.197Z,29.83
2023-05-05T10:11:53.330Z,30.13
2023-05-05T10:14:20.620Z,29.86
2023-05-05T10:16:52.059Z,30.62
2023-05-05T10:19:20.470Z,31.13
2023-05-05T10:21:51.557Z,31.16
2023-05-05T10:24:42.715Z,31.34
2023-05-05T10:27:16.592Z,31.28
2023-05-05T10:30:07.305Z,30.91
2023-05-05T10:32:54.355Z,31.35
2023-05-05T10:35:27.229Z,31.56
2023-05-05T10:37:54.902Z,30.99
2023-05-05T10:40:25.670Z,30.83
2023-05-05T10:42:54.150Z,30.70
2023-05-05T10:45:20.863Z,30.72
2023-05-05T10:47:48.318Z,30.52
2023-05-05T10:50:24.533Z,29.81
2023-05-05T10:53:18.988Z,29.97
2023-05-05T10:56:04.514Z,30.22
2023-05-05T10:58:59.013Z,30.53
2023-05-05T11:01:34.840Z,30.84
2023-05-05T11:04:21.798Z,30.57
2023-05-05T11:07:14.387Z,31.18
2023-05-05T11:09:59.370Z,31.15
2023-05-05T11:12:25.966Z,31.06
2023-05-05T11:15:23.679Z,30.86
2023-05-05T11:17:50.592Z,30.75
2023-05-05T11:20:17.298Z,30.50
2023-05-05T11:23:04.296Z,30.59
2023-05-05T11:25:34.315Z,30.49
2023-05-05T11:28:05.376Z,30.64
2023-05-05T11:30:32.070Z,31.07
2023-05-05T11:33:24.625Z,31.35
2023-05-05T11:36:06.745Z,30.87
2023-05-05T11:39:00.206Z,31.12
2023-05-05T11:41:32.798Z,31.24
2023-05-05T11:44:12.133Z,31.47
2023-05-05T11:47:04.322Z,31.51
2023-05-05T11:49:34.556Z,31.97
2023-05-05T11:52:05.423Z,32.31
2023-05-05T11:54:33.123Z,32.08
2023-05-05T11:57:10.141Z,32.74
2023-05-05T12:00:02.671Z,33.36
2023-05-05T12:02:31.491Z,33.00
2023-05-05T12:04:59.483Z,32.99
2023-05-05T12:07:28.142Z,32.95
2023-05-05T12:09:55.227Z,32.89
2023-05-05T12:12:33.046Z,32.71
2023-05-05T12:14:59.598Z,32.71
2023-05-05T12:17:36.728Z,32.73
2023-05-05T12:20:03.745Z,32.79
2023-05-05T12:22:30.456Z,32.68
2023-05-05T12:24:59.729Z,32.37
2023-05-05T12:27:27.771Z,32.16
2023-05-05T12:29:55.481Z,32.46
2023-05-05T12:32:28.100Z,33.18
2023-05-05T12:34:57.555Z,33.46
2023-05-05T12:37:26.171Z,33.67
2023-05-05T12:39:54.998Z,33.46
2023-05-05T12:42:23.059Z,33.15
2023-05-05T12:44:49.681Z,33.18
2023-05-05T12:47:30.311Z,33.45
2023-05-05T12:49:57.635Z,33.34
2023-05-05T12:52:24.225Z,32.86
2023-05-05T12:54:55.118Z,32.79
2023-05-05T12:57:22.371Z,32.60
2023-05-05T12:59:49.692Z,32.25
2023-05-05T13:02:17.054Z,32.05
2023-05-05T13:04:54.055Z,31.95
2023-05-05T13:07:21.937Z,32.14
2023-05-05T13:09:50.866Z,32.20
2023-05-05T13:12:18.549Z,32.14
2023-05-05T13:14:46.677Z,32.26
2023-05-05T13:17:14.148Z,32.71
2023-05-05T13:19:46.122Z,32.54
2023-05-05T13:22:13.377Z,32.38
2023-05-05T13:24:50.786Z,32.36
2023-05-05T13:27:18.563Z,32.36
2023-05-05T13:29:45.906Z,32.44
2023-05-05T13:32:12.606Z,32.68
2023-05-05T13:34:39.521Z,32.35
2023-05-05T13:37:06.491Z,32.71
2023-05-05T13:39:33.209Z,32.77
2023-05-05T13:41:59.777Z,32.81
2023-05-05T13:44:26.355Z,32.51
2023-05-05T13:46:57.449Z,32.92
2023-05-05T13:49:25.793Z,33.24
2023-05-05T13:51:52.668Z,33.15
2023-05-05T13:54:19.528Z,33.08
2023-05-05T13:56:46.215Z,32.97
2023-05-05T13:59:12.849Z,32.80
2023-05-05T14:01:39.571Z,32.71
2023-05-05T14:04:06.366Z,32.79
2023-05-05T14:06:33.590Z,32.88
2023-05-05T14:09:00.540Z,32.50
2023-05-05T14:11:27.393Z,32.31
2023-05-05T14:13:54.084Z,31.94
2023-05-05T14:16:20.640Z,31.98
2023-05-05T14:18:47.251Z,31.58
2023-05-05T14:21:13.776Z,31.68
2023-05-05T14:23:40.350Z,31.69
2023-05-05T14:26:08.693Z,31.68
2023-05-05T14:28:35.345Z,31.06
2023-05-05T14:31:01.889Z,31.48
2023-05-05T14:33:28.455Z,31.60
2023-05-05T14:35:55.442Z,31.67
2023-05-05T14:38:22.037Z,31.64
2023-05-05T14:40:48.714Z,31.55
2023-05-05T14:43:15.252Z,31.62
2023-05-05T14:45:42.057Z,31.61
2023-05-05T14:48:08.744Z,31.46
2023-05-05T14:50:35.354Z,31.61
2023-05-05T14:53:01.899Z,31.36
2023-05-05T14:55:28.586Z,31.55
2023-05-05T14:57:55.166Z,31.62
2023-05-05T15:00:21.737Z,31.75
2023-05-05T15:02:48.553Z,31.76
2023-05-05T15:05:15.537Z,31.42
2023-05-05T15:07:42.516Z,31.37
2023-05-05T15:10:09.618Z,31.74
2023-05-05T15:12:36.247Z,31.87
2023-05-05T15:15:02.928Z,31.67
2023-05-05T15:17:30.760Z,31.61
2023-05-05T15:19:57.488Z,31.63
2023-05-05T15:22:24.098Z,31.71
2023-05-05T15:24:50.825Z,31.76
2023-05-05T15:27:18.170Z,31.70
2023-05-05T15:29:45.013Z,31.27
2023-05-05T15:32:11.596Z,31.37
2023-05-05T15:34:38.208Z,31.55
2023-05-05T15:37:04.825Z,31.62
2023-05-05T15:39:31.511Z,31.72
2023-05-05T15:42:02.667Z,31.70
2023-05-05T15:44:29.865Z,31.94
2023-05-05T15:46:56.442Z,31.83
2023-05-05T15:49:23.042Z,31.52
2023-05-05T15:51:49.668Z,31.23
2023-05-05T15:54:16.277Z,31.60
2023-05-05T15:56:42.819Z,31.03
2023-05-05T15:59:09.326Z,31.36
2023-05-05T16:01:36.403Z,31.16
2023-05-05T16:04:03.556Z,31.14
2023-05-05T16:06:30.426Z,31.05
2023-05-05T16:08:58.506Z,30.88
2023-05-05T16:11:26.151Z,30.54
2023-05-05T16:13:53.081Z,30.54
2023-05-05T16:16:19.702Z,30.86
2023-05-05T16:18:46.318Z,30.77
2023-05-05T16:21:13.083Z,30.86
2023-05-05T16:23:39.811Z,30.97
2023-05-05T16:26:06.432Z,30.80
2023-05-05T16:28:34.220Z,31.06
2023-05-05T16:31:01.786Z,31.10
2023-05-05T16:33:28.507Z,30.98
2023-05-05T16:35:55.464Z,30.59
2023-05-05T16:38:22.019Z,30.77
2023-05-05T16:40:48.583Z,30.79
2023-05-05T16:43:15.309Z,30.79
2023-05-05T16:45:41.928Z,30.71
2023-05-05T16:48:09.235Z,30.66
2023-05-05T16:50:36.167Z,30.32
2023-05-05T16:53:02.738Z,30.13
2023-05-05T16:55:29.607Z,30.19
2023-05-05T16:57:56.200Z,30.10
2023-05-05T17:00:22.726Z,30.07
2023-05-05T17:02:49.325Z,29.91
2023-05-05T17:05:17.320Z,29.74
2023-05-05T17:07:43.890Z,29.82
2023-05-05T17:10:10.810Z,29.76
2023-05-05T17:12:37.445Z,29.62
2023-05-05T17:15:04.351Z,29.79
2023-05-05T17:17:30.905Z,29.67
2023-05-05T17:19:57.421Z,29.58
2023-05-05T17:22:24.044Z,29.56
2023-05-05T17:24:50.863Z,29.55
2023-05-05T17:27:17.464Z,29.51
2023-05-05T17:29:44.165Z,29.41
2023-05-05T17:32:10.935Z,29.32
2023-05-05T17:34:37.753Z,29.27
2023-05-05T17:37:04.661Z,29.01
2023-05-05T17:39:31.210Z,28.89
2023-05-05T17:41:57.810Z,28.91
2023-05-05T17:44:24.404Z,28.91
2023-05-05T17:46:51.182Z,28.92
2023-05-05T17:49:17.799Z,28.81
2023-05-05T17:51:44.384Z,28.78
2023-05-05T17:54:11.025Z,28.77
2023-05-05T17:56:37.983Z,28.72
2023-05-05T17:59:04.763Z,28.63
2023-05-05T18:01:31.332Z,28.58
2023-05-05T18:03:57.921Z,28.49
2023-05-05T18:06:24.919Z,28.46
2023-05-05T18:08:51.609Z,28.41
2023-05-05T18:11:19.249Z,28.37
2023-05-05T18:13:45.924Z,28.27
2023-05-05T18:16:12.652Z,28.17
2023-05-05T18:18:41.122Z,28.09
2023-05-05T18:21:12.123Z,27.92
2023-05-05T18:23:40.315Z,27.95
2023-05-05T18:26:07.217Z,27.90
2023-05-05T18:28:33.756Z,27.78
2023-05-05T18:31:00.334Z,27.82
2023-05-05T18:33:26.898Z,27.81
2023-05-05T18:35:53.505Z,27.83
2023-05-05T18:38:20.100Z,27.77
2023-05-05T18:40:46.788Z,27.82
2023-05-05T18:43:13.392Z,27.81
2023-05-05T18:45:40.120Z,27.57
2023-05-05T18:48:06.886Z,27.57
2023-05-05T18:50:33.475Z,25.93
2023-05-05T18:52:59.995Z,25.28
2023-05-05T18:55:26.540Z,22.53
2023-05-05T18:57:53.264Z,19.54
2023-05-05T19:00:20.657Z,19.28
2023-05-05T19:02:47.243Z,18.61
2023-05-05T19:05:13.839Z,18.25
2023-05-05T19:07:40.769Z,18.67
2023-05-05T19:10:08.289Z,18.73
2023-05-05T19:12:35.090Z,18.46
2023-05-05T19:15:01.712Z,18.52
2023-05-05T19:17:28.321Z,18.75
2023-05-05T19:19:54.885Z,18.91
2023-05-05T19:22:23.374Z,19.23
2023-05-05T19:24:49.886Z,19.29
2023-05-05T19:27:17.084Z,19.32
2023-05-05T19:29:43.869Z,19.49
2023-05-05T19:32:10.765Z,19.59
2023-05-05T19:34:37.404Z,19.57
2023-05-05T19:37:03.949Z,19.59
2023-05-05T19:39:30.510Z,19.59
2023-05-05T19:41:57.095Z,19.52
2023-05-05T19:44:23.745Z,19.58
2023-05-05T19:46:50.399Z,19.53
2023-05-05T19:49:16.923Z,19.49
2023-05-05T19:51:43.793Z,19.56
2023-05-05T19:54:10.462Z,19.52
2023-05-05T19:56:37.057Z,19.65
2023-05-05T19:59:06.067Z,19.79
2023-05-05T20:01:35.530Z,19.60
2023-05-05T20:04:03.550Z,19.53
2023-05-05T20:06:30.185Z,19.57
2023-05-05T20:08:56.717Z,19.64
2023-05-05T20:11:24.600Z,19.63
2023-05-05T20:13:51.710Z,19.42
2023-05-05T20:16:18.618Z,19.54
2023-05-05T20:18:45.216Z,19.54
2023-05-05T20:21:11.754Z,19.56
2023-05-05T20:23:38.366Z,19.63
2023-05-05T20:26:04.983Z,19.63
2023-05-05T20:28:31.706Z,19.85
2023-05-05T20:30:58.424Z,19.93
2023-05-05T20:33:24.957Z,19.88
2023-05-05T20:35:51.500Z,19.86
2023-05-05T20:38:18.105Z,19.93
2023-05-05T20:40:44.725Z,20.00
2023-05-05T20:43:11.240Z,19.89
2023-05-05T20:45:37.835Z,19.98
2023-05-05T20:48:07.204Z,20.00
2023-05-05T20:50:36.514Z,20.04
2023-05-05T20:53:03.046Z,20.01
2023-05-05T20:55:29.617Z,20.10
2023-05-05T20:57:56.207Z,20.09
2023-05-05T21:00:23.037Z,20.04
2023-05-05T21:02:49.626Z,20.06
2023-05-05T21:05:16.273Z,20.17
2023-05-05T21:07:42.858Z,20.28
2023-05-05T21:10:10.086Z,20.14
2023-05-05T21:12:36.987Z,20.16
2023-05-05T21:15:03.767Z,20.14
2023-05-05T21:17:30.335Z,20.21
2023-05-05T21:19:57.364Z,20.28
2023-05-05T21:22:23.882Z,20.25
2023-05-05T21:24:50.964Z,20.18
2023-05-05T21:27:17.688Z,20.05
2023-05-05T21:29:44.228Z,20.15
2023-05-05T21:32:11.454Z,20.26
2023-05-05T21:34:38.728Z,20.32
2023-05-05T21:37:06.280Z,20.28
2023-05-05T21:39:33.238Z,20.14
2023-05-05T21:42:00.734Z,20.21
2023-05-05T21:44:28.136Z,20.21
2023-05-05T21:46:55.216Z,20.24
2023-05-05T21:49:21.816Z,20.17
2023-05-05T21:51:48.370Z,20.25
2023-05-05T21:54:14.895Z,20.28
2023-05-05T21:56:41.706Z,20.47
2023-05-05T21:59:08.313Z,20.48
2023-05-05T22:01:35.175Z,20.51
2023-05-05T22:04:01.888Z,20.46
2023-05-05T22:06:28.459Z,20.44
2023-05-05T22:08:56.581Z,20.51
2023-05-05T22:11:23.478Z,20.58
2023-05-05T22:13:50.336Z,20.59
2023-05-05T22:16:19.744Z,20.62
2023-05-05T22:18:46.754Z,20.52
2023-05-05T22:21:13.474Z,20.53
2023-05-05T22:23:41.772Z,20.50
2023-05-05T22:26:08.998Z,20.59
2023-05-05T22:28:36.064Z,20.45
2023-05-05T22:31:02.650Z,20.54
2023-05-05T22:33:29.277Z,20.65
2023-05-05T22:35:56.043Z,20.64
2023-05-05T22:38:22.650Z,20.55
2023-05-05T22:40:49.200Z,20.68
2023-05-05T22:43:15.726Z,20.54
2023-05-05T22:45:43.184Z,20.60
2023-05-05T22:48:09.786Z,20.57
2023-05-05T22:50:36.697Z,20.56
2023-05-05T22:53:03.570Z,20.54
2023-05-05T22:55:30.210Z,20.51
2023-05-05T22:57:56.717Z,20.64
2023-05-05T23:00:24.123Z,20.45
2023-05-05T23:02:50.784Z,20.51
2023-05-05T23:05:17.497Z,20.49
2023-05-05T23:07:44.134Z,20.39
2023-05-05T23:10:10.805Z,20.34
2023-05-05T23:12:37.537Z,20.38
2023-05-05T23:15:05.465Z,20.16
2023-05-05T23:17:32.144Z,20.34
2023-05-05T23:19:58.795Z,20.37
2023-05-05T23:22:25.360Z,20.29
2023-05-05T23:24:51.855Z,20.31
2023-05-05T23:27:18.379Z,20.36
2023-05-05T23:29:44.891Z,20.30
2023-05-05T23:32:11.404Z,20.43
2023-05-05T23:34:37.967Z,20.38
2023-05-05T23:37:06.214Z,20.29
2023-05-05T23:39:34.413Z,20.37
2023-05-05T23:42:00.976Z,20.34
2023-05-05T23:44:27.665Z,20.31
2023-05-05T23:46:54.446Z,20.37
2023-05-05T23:49:21.189Z,20.36
2023-05-05T23:51:47.725Z,20.28
2023-05-05T23:54:14.231Z,20.34
2023-05-05T23:56:41.054Z,20.34
2023-05-05T23:59:07.611Z,20.38
